(°C)
-1°
-2°
(°C)
-5°
-5°
-4°
-5°
-5°
-6°
-6°
SSW
SSW
SSW
SSW
SSW
SSW
SSW
(km/h)
7-14
8-15
9-17
9-17
9-17
8-15
6-12
(mm)
0
0
0
0
0
0
0
(%)
2
2
2
1
1
1
0

Elevazione del sole

/ 31.8°
sun-icon
UV 2
07:13
17:16
Luna calante (295°)
02:39
12:30

METAR per Wilmington Manor (KILG)

Ora Condizioni Temperatura/
Punto di rugiada
Vento Visibilità Meteo Nuvole Pressione Cambiamento Grezzo
VFR -1.1°C / °C 140º 10kt >10km - Clear 1030 - KILG 271651Z 14010KT 10SM CLR M01/M13 A3044 RMK AO2 SLP308 T10111128
VFR -2.2°C / °C 130º 5kt >10km - Clear 1031 - KILG 271551Z 13005KT 10SM CLR M02/M13 A3047 RMK AO2 SLP319 T10221128
VFR -3.9°C / °C 170º 4kt >10km - Clear 1032 - KILG 271451Z 17004KT 10SM CLR M04/M13 A3048 RMK AO2 SLP322 T10391128 58002
VFR -5.6°C / °C variable 0kt >10km - Clear 1032 - KILG 271351Z 00000KT 10SM CLR M06/M11 A3048 RMK AO2 SLP322 T10561111
VFR °C / °C 320º 3kt >10km - Clear 1032 - KILG 271251Z 32003KT 8SM CLR M10/M13 A3049 RMK AO2 SLP324 T11001128 $
VFR °C / °C variable 0kt >10km - Clear 1032 - KILG 271151Z AUTO 00000KT 10SM CLR M10/M13 A3048 RMK AO2 SLP323 T11001128 11067 21111 53004 $
VFR -9.4°C / °C 330º 3kt >10km - Clear 1032 - KILG 271051Z AUTO 33003KT 10SM CLR M09/M13 A3047 RMK AO2 SLP320 T10941128 $
VFR -9.4°C / °C 320º 3kt >10km - Clear 1031 - KILG 270951Z 32003KT 9SM CLR M09/M13 A3047 RMK AO2 SLP318 T10941128 $
VFR -8.9°C / °C 330º 3kt >10km - Clear 1032 - KILG 270851Z 33003KT 9SM CLR M09/M12 A3047 RMK AO2 SLP320 T10891122 58004 $
VFR -8.3°C / °C 30º 3kt >10km - Clear 1032 - KILG 270751Z 03003KT 10SM CLR M08/M13 A3048 RMK AO2 SLP321 T10831128 $
VFR -8.9°C / °C variable 0kt >10km - Clear 1032 - KILG 270651Z 00000KT 10SM CLR M09/M13 A3048 RMK AO2 SLP322 T10891133 $
VFR -6.7°C / °C 290º 3kt >10km - Clear 1032 - KILG 270551Z 29003KT 10SM CLR M07/M14 A3048 RMK AO2 SLP323 T10671139 11044 21083 53002 $
VFR -7.2°C / °C 320º 4kt >10km - Clear 1032 - KILG 270451Z 32004KT 10SM CLR M07/M13 A3048 RMK AO2 SLP323 T10721128 400001083 $
VFR -6.7°C / °C variable 0kt >10km - Clear 1032 - KILG 270351Z 00000KT 10SM CLR M07/M14 A3048 RMK AO2 SLP322 T10671139 $
VFR -5.6°C / °C variable 0kt >10km - Clear 1032 - KILG 270251Z 00000KT 10SM CLR M06/M14 A3048 RMK AO2 SLP321 T10561139 51013 $
VFR -5°C / °C 320º 3kt >10km - Clear 1032 - KILG 270151Z 32003KT 10SM CLR M05/M14 A3048 RMK AO2 SLP320 T10501144 $
VFR -5.6°C / °C 330º 3kt >10km - Clear 1031 - KILG 270051Z 33003KT 10SM CLR M06/M14 A3047 RMK AO2 SLP318 T10561139 /
VFR -5.6°C / °C 330º 6kt >10km - Clear 1030 - KILG 262351Z 33006KT 10SM CLR M06/M14 A3044 RMK AO2 SLP309 T10561144 10000 21056 53024 $
VFR -3.9°C / °C 320º 7kt >10km - Clear 1030 - KILG 262251Z 32007KT 10SM CLR M04/M14 A3042 RMK AO2 SLP301 T10391144 $
VFR -2.2°C / °C 320º 9kt >10km - Clear 1029 - KILG 262151Z 32009KT 10SM CLR M02/M15 A3039 RMK AO2 SLP292 T10221150
VFR -1.1°C / °C 330º 9kt >10km - Clear 1028 - KILG 262051Z 33009KT 10SM CLR M01/M15 A3037 RMK AO2 SLP285 T10111150 53001 $
VFR -0.6°C / °C 300º 12kt >10km - Clear 1028 - KILG 261951Z 30012KT 10SM CLR M01/M16 A3036 RMK AO2 SLP280 T10061156 $
VFR -0.6°C / °C 350º 5kt >10km - Clear 1028 - KILG 261851Z 35005KT 10SM CLR M01/M16 A3036 RMK AO2 SLP281 T10061156 $
VFR -0.6°C / °C 360º 9kt >10km - Clear 1028 - KILG 261751Z 36009KT 10SM CLR M01/M15 A3037 RMK AO2 SLP283 T10061150 11006 21083 58012 $

VFR

-1.1°C / °C

[Più]
Vento 140º 10kt
Visibilità >10km
Meteo -
Nuvole Clear
Pressione 1030
Cambiamento -
Grezzo KILG 271651Z 14010KT 10SM CLR M01/M13 A3044 RMK AO2 SLP308 T10111128

VFR

-2.2°C / °C

[Più]
Vento 130º 5kt
Visibilità >10km
Meteo -
Nuvole Clear
Pressione 1031
Cambiamento -
Grezzo KILG 271551Z 13005KT 10SM CLR M02/M13 A3047 RMK AO2 SLP319 T10221128

VFR

-3.9°C / °C

[Più]
Vento 170º 4kt
Visibilità >10km
Meteo -
Nuvole Clear
Pressione 1032
Cambiamento -
Grezzo KILG 271451Z 17004KT 10SM CLR M04/M13 A3048 RMK AO2 SLP322 T10391128 58002

VFR

-5.6°C / °C

[Più]
Vento variable 0kt
Visibilità >10km
Meteo -
Nuvole Clear
Pressione 1032
Cambiamento -
Grezzo KILG 271351Z 00000KT 10SM CLR M06/M11 A3048 RMK AO2 SLP322 T10561111

VFR

°C / °C

[Più]
Vento 320º 3kt
Visibilità >10km
Meteo -
Nuvole Clear
Pressione 1032
Cambiamento -
Grezzo KILG 271251Z 32003KT 8SM CLR M10/M13 A3049 RMK AO2 SLP324 T11001128 $

VFR

°C / °C

[Più]
Vento variable 0kt
Visibilità >10km
Meteo -
Nuvole Clear
Pressione 1032
Cambiamento -
Grezzo KILG 271151Z AUTO 00000KT 10SM CLR M10/M13 A3048 RMK AO2 SLP323 T11001128 11067 21111 53004 $

VFR

-9.4°C / °C

[Più]
Vento 330º 3kt
Visibilità >10km
Meteo -
Nuvole Clear
Pressione 1032
Cambiamento -
Grezzo KILG 271051Z AUTO 33003KT 10SM CLR M09/M13 A3047 RMK AO2 SLP320 T10941128 $

VFR

-9.4°C / °C

[Più]
Vento 320º 3kt
Visibilità >10km
Meteo -
Nuvole Clear
Pressione 1031
Cambiamento -
Grezzo KILG 270951Z 32003KT 9SM CLR M09/M13 A3047 RMK AO2 SLP318 T10941128 $

VFR

-8.9°C / °C

[Più]
Vento 330º 3kt
Visibilità >10km
Meteo -
Nuvole Clear
Pressione 1032
Cambiamento -
Grezzo KILG 270851Z 33003KT 9SM CLR M09/M12 A3047 RMK AO2 SLP320 T10891122 58004 $

VFR

-8.3°C / °C

[Più]
Vento 30º 3kt
Visibilità >10km
Meteo -
Nuvole Clear
Pressione 1032
Cambiamento -
Grezzo KILG 270751Z 03003KT 10SM CLR M08/M13 A3048 RMK AO2 SLP321 T10831128 $

VFR

-8.9°C / °C

[Più]
Vento variable 0kt
Visibilità >10km
Meteo -
Nuvole Clear
Pressione 1032
Cambiamento -
Grezzo KILG 270651Z 00000KT 10SM CLR M09/M13 A3048 RMK AO2 SLP322 T10891133 $

VFR

-6.7°C / °C

[Più]
Vento 290º 3kt
Visibilità >10km
Meteo -
Nuvole Clear
Pressione 1032
Cambiamento -
Grezzo KILG 270551Z 29003KT 10SM CLR M07/M14 A3048 RMK AO2 SLP323 T10671139 11044 21083 53002 $

VFR

-7.2°C / °C

[Più]
Vento 320º 4kt
Visibilità >10km
Meteo -
Nuvole Clear
Pressione 1032
Cambiamento -
Grezzo KILG 270451Z 32004KT 10SM CLR M07/M13 A3048 RMK AO2 SLP323 T10721128 400001083 $

VFR

-6.7°C / °C

[Più]
Vento variable 0kt
Visibilità >10km
Meteo -
Nuvole Clear
Pressione 1032
Cambiamento -
Grezzo KILG 270351Z 00000KT 10SM CLR M07/M14 A3048 RMK AO2 SLP322 T10671139 $

VFR

-5.6°C / °C

[Più]
Vento variable 0kt
Visibilità >10km
Meteo -
Nuvole Clear
Pressione 1032
Cambiamento -
Grezzo KILG 270251Z 00000KT 10SM CLR M06/M14 A3048 RMK AO2 SLP321 T10561139 51013 $

VFR

-5°C / °C

[Più]
Vento 320º 3kt
Visibilità >10km
Meteo -
Nuvole Clear
Pressione 1032
Cambiamento -
Grezzo KILG 270151Z 32003KT 10SM CLR M05/M14 A3048 RMK AO2 SLP320 T10501144 $

VFR

-5.6°C / °C

[Più]
Vento 330º 3kt
Visibilità >10km
Meteo -
Nuvole Clear
Pressione 1031
Cambiamento -
Grezzo KILG 270051Z 33003KT 10SM CLR M06/M14 A3047 RMK AO2 SLP318 T10561139 /

VFR

-5.6°C / °C

[Più]
Vento 330º 6kt
Visibilità >10km
Meteo -
Nuvole Clear
Pressione 1030
Cambiamento -
Grezzo KILG 262351Z 33006KT 10SM CLR M06/M14 A3044 RMK AO2 SLP309 T10561144 10000 21056 53024 $

VFR

-3.9°C / °C

[Più]
Vento 320º 7kt
Visibilità >10km
Meteo -
Nuvole Clear
Pressione 1030
Cambiamento -
Grezzo KILG 262251Z 32007KT 10SM CLR M04/M14 A3042 RMK AO2 SLP301 T10391144 $

VFR

-2.2°C / °C

[Più]
Vento 320º 9kt
Visibilità >10km
Meteo -
Nuvole Clear
Pressione 1029
Cambiamento -
Grezzo KILG 262151Z 32009KT 10SM CLR M02/M15 A3039 RMK AO2 SLP292 T10221150

VFR

-1.1°C / °C

[Più]
Vento 330º 9kt
Visibilità >10km
Meteo -
Nuvole Clear
Pressione 1028
Cambiamento -
Grezzo KILG 262051Z 33009KT 10SM CLR M01/M15 A3037 RMK AO2 SLP285 T10111150 53001 $

VFR

-0.6°C / °C

[Più]
Vento 300º 12kt
Visibilità >10km
Meteo -
Nuvole Clear
Pressione 1028
Cambiamento -
Grezzo KILG 261951Z 30012KT 10SM CLR M01/M16 A3036 RMK AO2 SLP280 T10061156 $

VFR

-0.6°C / °C

[Più]
Vento 350º 5kt
Visibilità >10km
Meteo -
Nuvole Clear
Pressione 1028
Cambiamento -
Grezzo KILG 261851Z 35005KT 10SM CLR M01/M16 A3036 RMK AO2 SLP281 T10061156 $

VFR

-0.6°C / °C

[Più]
Vento 360º 9kt
Visibilità >10km
Meteo -
Nuvole Clear
Pressione 1028
Cambiamento -
Grezzo KILG 261751Z 36009KT 10SM CLR M01/M15 A3037 RMK AO2 SLP283 T10061150 11006 21083 58012 $

TAF per Wilmington Manor (KILG)

From till


From till Wind 170º 8kt. Visibility 10km or more. Scattered Clouds 25000ft.
From till Wind variable 3kt. Visibility 10km or more. Broken Clouds 10000ft.
From till Wind 300º 5kt. Visibility 10km or more. Overcast 2500ft.

Grezzo: KILG 271720Z 2718/2818 17008KT P6SM SCT250 FM280000 VRB03KT P6SM BKN100 FM281600 30005KT P6SM OVC025

Radar e nowcasting per Wilmington Manor

Pioviggine
Lieve
Moderato
Forte
Molto forte
Grandine

Il segnaposto è situato a Wilmington Manor. Questa animazione mostra il radar delle precipitazioni per l'ultima ora, nonché una previsione 1h. Una pioviggine o una leggera caduta di neve potrebbero essere invisibili per il radar. L'intensità delle precipitazioni è codificata a colori, dal blu chiaro all'arancione.

Immagine satellitare per Wilmington Manor, USA

Il segnaposto è situato a Wilmington Manor. [Più]

L'immagine satellitare in tempo reale combina la luce visibile durante il giorno con la radiazione infrarossa durante la notte. Di notte l'immagine non è scura poiché i raggi infrarossi possono rilevare differenze di temperatura. Purtroppo, le nuvole basse e la nebbia sono difficili da distinguere dalla temperatura del suolo e possono pertanto essere quasi invisibili durante la notte. Le immagini satellitari Meteosat per l'Europa vengono aggiornate in tempo reale ogni 5 minuti. Le immagini GOES-16 / GOES-17 (Nord e Sud America) e Himawari (Asia) vengono aggiornate ogni 10 minuti.